Weather at La Côte Airport

Public forecast

Using degrees Celsius for public forecast. Weather courtesy of forecast.io.

Closest aviation weather report (METAR) to La Côte Airport

Closest report is Geneva Cointrin International Airport, 11.8 nm (21.9 km) SSW. Retrieved 2021/01/19 10:20 UTC (25 minutes ago):

LSGG 191020Z VRB03KT CAVOK 01/M03 Q1023 R04/19//// NOSIG

Closest aviation forecast (TAF) to La Côte Airport

Closest forecast is Geneva Cointrin International Airport, 11.8 nm (21.9 km) SSW. Retrieved 2021/01/19 09:33 UTC (1 hour ago):

TAF TAF LSGG 190825Z 1909/2015 VRB02KT CAVOK TX05/1915Z TNM01/2006Z TX08/2013Z PROB30 TEMPO 1911/1918 24008KT BECMG 2000/2002 23007KT PROB30 2002/2008 0800 FZFG VV003 BECMG 2004/2006 9999 BKN090